Time;durP1;ratioP1;P1;durP2;ratioP2;P2;SDS_P1;SDS_P2;PMS_P1;PMS_P2;Temp;Humidity;BMP_temperature;BMP_pressure;BME280_temperature;BME280_humidity;BME280_pressure;Samples;Min_cycle;Max_cycle;Signal;HPM_P1;HPM_P2
2022/01/09 00:04:19;;;;;;;5.78;3.05;;;;;;;2.34;100.00;99178.38;10102655;28;20050;-66
2022/01/09 00:09:16;;;;;;;9.13;3.40;;;;;;;2.31;100.00;99169.78;10103690;28;20133;-66
2022/01/09 00:14:13;;;;;;;11.70;4.43;;;;;;;2.37;100.00;99164.28;10099941;28;20050;-65
2022/01/09 00:19:09;;;;;;;7.05;3.15;;;;;;;2.44;100.00;99162.00;10093938;28;20050;-65
2022/01/09 00:24:05;;;;;;;6.90;2.75;;;;;;;2.43;100.00;99154.97;10104319;28;20089;-65
2022/01/09 00:29:03;;;;;;;9.68;2.90;;;;;;;2.45;100.00;99140.09;10100861;28;20478;-68
2022/01/09 00:34:00;;;;;;;7.47;3.13;;;;;;;2.42;100.00;99131.81;10090642;28;20051;-68
2022/01/09 00:38:57;;;;;;;5.35;2.60;;;;;;;2.31;100.00;99115.81;10110116;28;20113;-68
2022/01/09 00:43:54;;;;;;;7.85;3.70;;;;;;;2.41;100.00;99108.63;10106397;28;20098;-66
2022/01/09 00:48:50;;;;;;;8.57;2.95;;;;;;;2.53;100.00;99100.81;10109856;28;20055;-67
2022/01/09 00:53:47;;;;;;;9.70;2.78;;;;;;;2.53;100.00;99103.53;10101135;28;20459;-66
2022/01/09 00:58:43;;;;;;;7.97;2.85;;;;;;;2.49;100.00;99099.81;10109460;28;20077;-67
2022/01/09 01:03:40;;;;;;;7.30;2.92;;;;;;;2.51;100.00;99103.03;10106943;28;20090;-68
2022/01/09 01:08:36;;;;;;;11.13;3.28;;;;;;;2.55;100.00;99097.81;10109207;28;20043;-68
2022/01/09 01:13:33;;;;;;;6.75;2.53;;;;;;;2.51;100.00;99100.31;10105741;28;20697;-68
2022/01/09 01:18:29;;;;;;;8.52;2.92;;;;;;;2.58;100.00;99097.22;10109066;28;20129;-67
2022/01/09 01:23:26;;;;;;;6.20;2.80;;;;;;;2.50;100.00;99090.63;10105599;28;20097;-66
2022/01/09 01:28:23;;;;;;;7.75;2.85;;;;;;;2.49;100.00;99094.44;10114348;28;20101;-67
2022/01/09 01:33:19;;;;;;;6.82;2.70;;;;;;;2.54;100.00;99080.81;10110750;28;20565;-69
2022/01/09 01:38:16;;;;;;;8.00;2.70;;;;;;;2.43;100.00;99074.06;10106439;28;20114;-67
2022/01/09 01:43:13;;;;;;;5.93;2.50;;;;;;;2.36;100.00;99070.97;10084022;28;20483;-68
2022/01/09 01:48:10;;;;;;;7.55;2.42;;;;;;;2.37;100.00;99064.47;10115894;28;20100;-67
2022/01/09 01:53:15;;;;;;;5.93;2.75;;;;;;;2.50;100.00;99063.63;10113169;28;20051;-68
2022/01/09 01:58:12;;;;;;;8.10;2.92;;;;;;;2.49;100.00;99062.84;10107708;28;20047;-69
2022/01/09 02:03:11;;;;;;;5.63;2.20;;;;;;;2.50;100.00;99053.63;10105600;28;20043;-68
2022/01/09 02:08:08;;;;;;;6.55;2.88;;;;;;;2.52;100.00;99056.03;10105160;28;20503;-67
2022/01/09 02:13:07;;;;;;;9.80;3.10;;;;;;;2.43;100.00;99052.47;10100952;28;20047;-67
2022/01/09 02:18:06;;;;;;;7.88;2.60;;;;;;;2.43;100.00;99053.25;10100296;28;20193;-67
2022/01/09 02:23:06;;;;;;;6.22;3.00;;;;;;;2.40;100.00;99043.09;10109240;28;20104;-67
2022/01/09 02:28:04;;;;;;;5.20;2.53;;;;;;;2.41;100.00;99049.28;10094908;28;20046;-67
2022/01/09 02:33:03;;;;;;;8.55;3.10;;;;;;;2.38;100.00;99044.50;10102889;28;20040;-69
2022/01/09 02:38:02;;;;;;;7.43;2.97;;;;;;;2.33;100.00;99047.31;10084853;28;20431;-69
2022/01/09 02:42:59;;;;;;;6.93;3.22;;;;;;;2.28;100.00;99045.53;10105825;28;20290;-67
2022/01/09 02:47:57;;;;;;;6.60;3.00;;;;;;;2.20;100.00;99047.03;10104229;28;20613;-67
2022/01/09 02:53:00;;;;;;;9.35;3.33;;;;;;;2.12;100.00;99041.56;10090467;28;20134;-66
2022/01/09 02:58:00;;;;;;;7.82;3.67;;;;;;;2.06;100.00;99038.16;10101552;28;20075;-67
2022/01/09 03:02:57;;;;;;;8.75;4.40;;;;;;;2.06;100.00;99038.16;10110393;28;20487;-69
2022/01/09 03:07:54;;;;;;;10.90;3.53;;;;;;;2.03;100.00;99033.38;10110902;28;20047;-68
2022/01/09 03:12:53;;;;;;;8.70;3.60;;;;;;;2.05;100.00;99025.81;10105706;28;20043;-66
2022/01/09 03:17:49;;;;;;;7.22;3.58;;;;;;;2.04;100.00;99019.63;10108602;28;20081;-67
2022/01/09 03:22:48;;;;;;;6.28;3.40;;;;;;;2.12;100.00;99020.78;10092496;28;20534;-68
2022/01/09 03:27:49;;;;;;;10.75;3.67;;;;;;;2.13;100.00;99011.59;10091489;28;20046;-68
2022/01/09 03:32:46;;;;;;;8.80;3.50;;;;;;;2.24;100.00;99007.56;10104632;28;20043;-67
2022/01/09 03:37:45;;;;;;;5.25;2.90;;;;;;;2.24;100.00;99002.19;10091858;28;20472;-68
2022/01/09 03:42:42;;;;;;;9.82;2.92;;;;;;;2.31;100.00;98997.16;10129788;28;20059;-67
2022/01/09 03:47:39;;;;;;;7.75;2.90;;;;;;;2.35;100.00;98993.88;10092554;28;20085;-67
2022/01/09 03:52:38;;;;;;;6.18;3.10;;;;;;;2.37;100.00;98994.34;10128400;28;20096;-66
2022/01/09 03:57:34;;;;;;;8.13;3.15;;;;;;;2.28;100.00;98992.38;10100947;28;20134;-66
2022/01/09 04:02:31;;;;;;;5.93;3.47;;;;;;;2.34;100.00;99000.34;10105139;28;20047;-66
2022/01/09 04:07:28;;;;;;;7.07;3.72;;;;;;;2.32;100.00;98992.56;10097062;28;20055;-67
2022/01/09 04:12:35;;;;;;;8.45;4.45;;;;;;;2.37;100.00;99002.44;10131027;28;20047;-67
2022/01/09 04:22:38;;;;;;;9.15;4.53;;;;;;;2.39;100.00;99002.94;10122259;28;20035;-67
2022/01/09 04:27:36;;;;;;;13.05;4.05;;;;;;;2.45;100.00;98996.31;10091932;28;20095;-67
2022/01/09 04:32:32;;;;;;;7.90;3.10;;;;;;;2.40;100.00;98999.94;10110436;28;20062;-66
2022/01/09 04:37:30;;;;;;;7.47;3.38;;;;;;;2.36;100.00;99003.53;10119116;28;20054;-67
2022/01/09 04:42:37;;;;;;;6.28;3.10;;;;;;;2.39;100.00;98997.53;10119812;28;20070;-66
2022/01/09 04:47:34;;;;;;;5.43;2.92;;;;;;;2.39;100.00;99000.22;10104868;28;20428;-67
2022/01/09 04:52:34;;;;;;;7.28;3.33;;;;;;;2.38;100.00;99007.53;10119986;28;20129;-66
2022/01/09 04:57:32;;;;;;;7.15;3.15;;;;;;;2.31;100.00;99007.94;10110416;28;20081;-68
2022/01/09 05:02:28;;;;;;;8.93;3.47;;;;;;;2.33;100.00;99004.16;10111681;28;20070;-67
2022/01/09 05:07:25;;;;;;;5.68;2.95;;;;;;;2.26;100.00;99005.38;10113662;28;20051;-67
2022/01/09 05:12:21;;;;;;;8.32;2.55;;;;;;;2.23;100.00;99021.38;10120349;28;20077;-66
2022/01/09 05:17:18;;;;;;;7.10;3.67;;;;;;;2.23;100.00;99022.16;10108019;28;20051;-68
2022/01/09 05:22:15;;;;;;;8.20;3.25;;;;;;;2.18;100.00;99019.59;10106262;28;20528;-67
2022/01/09 05:27:11;;;;;;;7.90;3.20;;;;;;;2.26;100.00;99026.16;10099465;28;20043;-67
2022/01/09 05:32:08;;;;;;;6.72;3.28;;;;;;;2.13;100.00;99027.75;10093100;28;20086;-66
2022/01/09 05:37:05;;;;;;;7.03;3.72;;;;;;;2.13;100.00;99038.56;10094122;28;20734;-67
2022/01/09 05:42:04;;;;;;;9.05;4.70;;;;;;;1.83;100.00;99040.81;10115336;28;20051;-67
2022/01/09 05:47:02;;;;;;;7.10;3.58;;;;;;;1.97;100.00;99042.66;10118515;28;20105;-68
2022/01/09 05:51:58;;;;;;;6.38;3.85;;;;;;;1.96;100.00;99054.56;10146010;28;20085;-66
2022/01/09 05:56:55;;;;;;;8.23;3.95;;;;;;;1.95;100.00;99050.25;10097146;28;20077;-67
2022/01/09 06:01:52;;;;;;;8.93;4.30;;;;;;;1.86;100.00;99059.06;10140998;28;20550;-66
2022/01/09 06:06:49;;;;;;;11.80;4.47;;;;;;;1.82;100.00;99060.75;10112559;28;20166;-67
2022/01/09 06:11:46;;;;;;;11.25;5.07;;;;;;;1.70;100.00;99065.06;10133663;28;20414;-67
2022/01/09 06:16:42;;;;;;;9.82;5.53;;;;;;;1.72;100.00;99065.53;10121021;28;20081;-67
2022/01/09 06:21:38;;;;;;;8.75;5.00;;;;;;;1.77;100.00;99074.34;10127025;28;20044;-66
2022/01/09 06:26:35;;;;;;;9.00;5.18;;;;;;;1.75;100.00;99079.22;10101369;28;20097;-66
2022/01/09 06:31:31;;;;;;;12.15;5.65;;;;;;;1.67;100.00;99079.91;10078161;28;20054;-67
2022/01/09 06:36:28;;;;;;;9.52;5.55;;;;;;;1.70;100.00;99079.34;10110339;28;20101;-67
2022/01/09 06:41:24;;;;;;;10.02;5.90;;;;;;;1.63;100.00;99084.31;10147639;28;20042;-67
2022/01/09 06:46:21;;;;;;;9.60;5.88;;;;;;;1.66;100.00;99089.09;10119786;28;20042;-67
2022/01/09 06:51:18;;;;;;;10.25;6.18;;;;;;;1.67;100.00;99090.69;10148669;28;20100;-67
2022/01/09 06:56:14;;;;;;;9.10;6.20;;;;;;;1.63;100.00;99101.28;10104068;28;20141;-68
2022/01/09 07:01:10;;;;;;;14.52;7.22;;;;;;;1.59;100.00;99110.25;10128569;28;20129;-68
2022/01/09 07:06:07;;;;;;;15.02;7.78;;;;;;;1.62;100.00;99123.13;10104134;28;20082;-68
2022/01/09 07:11:04;;;;;;;11.68;8.05;;;;;;;1.67;100.00;99117.63;10097673;28;20074;-68
2022/01/09 07:16:01;;;;;;;11.85;7.82;;;;;;;1.66;100.00;99132.22;10101533;28;20407;-68
2022/01/09 07:20:57;;;;;;;12.73;7.82;;;;;;;1.61;100.00;99129.63;10135918;28;20046;-67
2022/01/09 07:25:54;;;;;;;13.98;8.50;;;;;;;1.51;100.00;99135.16;10117424;28;20642;-66
2022/01/09 07:30:51;;;;;;;12.50;7.95;;;;;;;1.66;100.00;99142.97;10105586;28;20396;-67
2022/01/09 07:35:47;;;;;;;11.82;8.43;;;;;;;1.78;100.00;99146.00;10108855;28;20457;-70
2022/01/09 07:40:47;;;;;;;13.45;8.73;;;;;;;1.79;100.00;99147.59;10137189;28;20506;-69
2022/01/09 07:45:43;;;;;;;13.27;8.18;;;;;;;1.74;100.00;99155.78;10101943;28;20082;-69
2022/01/09 07:50:40;;;;;;;16.83;8.63;;;;;;;1.81;100.00;99161.59;10134488;28;20097;-71
2022/01/09 07:55:36;;;;;;;12.27;8.10;;;;;;;1.75;100.00;99157.38;10130737;28;20804;-70
2022/01/09 08:00:33;;;;;;;12.30;8.50;;;;;;;1.75;100.00;99175.44;10139437;28;20046;-70
2022/01/09 08:05:29;;;;;;;12.60;8.85;;;;;;;1.68;100.00;99167.75;10109309;28;20562;-68
2022/01/09 08:10:26;;;;;;;12.35;8.88;;;;;;;1.73;100.00;99180.31;10100630;28;20844;-69
2022/01/09 08:15:22;;;;;;;13.27;9.27;;;;;;;1.69;100.00;99180.09;10097087;28;20047;-70
2022/01/09 08:20:19;;;;;;;14.15;9.35;;;;;;;1.82;100.00;99192.81;10093913;28;20082;-69
2022/01/09 08:25:17;;;;;;;11.75;8.93;;;;;;;1.86;100.00;99191.13;10099653;28;20098;-70
2022/01/09 08:30:16;;;;;;;12.68;9.23;;;;;;;1.97;100.00;99182.84;10097718;28;20094;-70
2022/01/09 08:35:12;;;;;;;13.10;9.00;;;;;;;1.95;100.00;99185.03;10091237;28;20478;-71
2022/01/09 08:40:11;;;;;;;14.63;9.25;;;;;;;1.98;100.00;99195.25;10094342;28;20078;-71
2022/01/09 08:45:14;;;;;;;14.27;9.05;;;;;;;2.03;100.00;99195.13;10109940;28;20046;-71
2022/01/09 08:50:12;;;;;;;12.43;9.13;;;;;;;2.01;100.00;99200.03;10090662;28;20097;-70
2022/01/09 08:55:09;;;;;;;13.30;10.10;;;;;;;2.02;100.00;99209.69;10083076;28;20070;-71
2022/01/09 09:00:07;;;;;;;14.80;9.75;;;;;;;2.03;100.00;99208.63;10091964;28;20055;-68
2022/01/09 09:05:05;;;;;;;14.38;9.75;;;;;;;2.06;100.00;99210.72;10082204;28;20047;-69
2022/01/09 09:10:04;;;;;;;13.23;9.15;;;;;;;2.14;100.00;99218.13;10085787;28;20495;-70
2022/01/09 09:15:03;;;;;;;14.88;9.65;;;;;;;2.19;100.00;99226.13;10093531;28;20503;-72
2022/01/09 09:20:00;;;;;;;13.35;9.70;;;;;;;2.22;100.00;99235.50;10098236;28;20514;-71
2022/01/09 09:24:58;;;;;;;13.73;9.63;;;;;;;2.28;100.00;99240.50;10081173;28;20546;-71
2022/01/09 09:29:55;;;;;;;15.07;10.18;;;;;;;2.22;100.00;99241.69;10087067;28;20055;-70
2022/01/09 09:34:51;;;;;;;13.55;10.10;;;;;;;2.16;100.00;99242.91;10104995;28;20042;-70
2022/01/09 09:39:51;;;;;;;14.20;9.88;;;;;;;2.29;100.00;99252.88;10096600;28;20090;-69
2022/01/09 09:44:47;;;;;;;15.20;9.23;;;;;;;2.37;100.00;99242.50;10095374;28;20070;-69
2022/01/09 09:49:44;;;;;;;15.13;8.95;;;;;;;2.36;100.00;99249.00;10095612;28;20515;-71
2022/01/09 09:54:42;;;;;;;17.10;10.70;;;;;;;2.36;100.00;99262.47;10096723;28;20521;-70
2022/01/09 09:59:39;;;;;;;13.82;9.52;;;;;;;2.43;100.00;99260.19;10101462;28;20047;-71
2022/01/09 10:04:36;;;;;;;15.45;9.50;;;;;;;2.47;100.00;99259.28;10097001;28;20050;-72
2022/01/09 10:09:33;;;;;;;14.18;9.80;;;;;;;2.48;100.00;99268.19;10084369;28;20510;-71
2022/01/09 10:14:32;;;;;;;15.60;9.18;;;;;;;2.52;100.00;99261.09;10107626;28;20039;-71
2022/01/09 10:19:53;;;;;;;14.85;9.93;;;;;;;2.54;100.00;99264.28;10088961;28;20074;-71
2022/01/09 10:24:49;;;;;;;13.82;9.70;;;;;;;2.64;100.00;99274.88;10093801;28;20082;-69
2022/01/09 10:29:49;;;;;;;12.95;8.35;;;;;;;2.66;100.00;99271.88;10078816;28;20042;-72
2022/01/09 10:35:05;;;;;;;14.07;9.43;;;;;;;2.63;100.00;99278.69;10085414;28;20459;-72
2022/01/09 10:40:05;;;;;;;11.90;7.72;;;;;;;2.67;100.00;99274.28;10086786;28;20500;-70
2022/01/09 10:45:24;;;;;;;13.05;7.95;;;;;;;2.68;100.00;99286.69;10085613;28;20403;-71
2022/01/09 10:50:29;;;;;;;11.90;7.45;;;;;;;2.67;100.00;99284.25;10086706;28;20055;-72
2022/01/09 10:55:31;;;;;;;9.43;6.75;;;;;;;2.67;100.00;99287.78;10084147;28;20562;-72
2022/01/09 11:00:27;;;;;;;11.40;7.07;;;;;;;2.76;100.00;99292.47;10089411;28;20070;-73
2022/01/09 11:05:24;;;;;;;10.13;7.15;;;;;;;2.74;100.00;99295.50;10102836;28;20050;-73
2022/01/09 11:10:21;;;;;;;10.55;7.00;;;;;;;2.77;100.00;99296.78;10085545;28;20495;-72
2022/01/09 11:15:19;;;;;;;9.88;6.60;;;;;;;2.76;100.00;99308.66;10094903;28;20093;-71
2022/01/09 11:20:17;;;;;;;10.98;7.03;;;;;;;2.71;100.00;99312.25;10094435;28;20139;-69
2022/01/09 11:25:28;;;;;;;9.25;6.28;;;;;;;2.73;100.00;99312.75;10086000;28;20649;-69
2022/01/09 11:31:02;;;;;;;9.52;5.88;;;;;;;2.68;100.00;99324.47;10085375;28;20557;-72
2022/01/09 11:36:14;;;;;;;10.90;7.18;;;;;;;2.77;100.00;99327.28;10086810;28;20070;-72
2022/01/09 11:41:36;;;;;;;9.73;7.07;;;;;;;2.82;100.00;99334.47;10083434;28;20477;-72
2022/01/09 11:47:02;;;;;;;11.63;7.85;;;;;;;2.85;100.00;99328.47;10085884;28;20150;-72
2022/01/09 11:51:59;;;;;;;8.90;6.68;;;;;;;2.94;100.00;99340.94;10082852;28;20051;-72
2022/01/09 11:57:00;;;;;;;14.75;8.05;;;;;;;2.94;100.00;99348.25;10088116;28;20078;-73
2022/01/09 12:02:18;;;;;;;10.30;7.35;;;;;;;3.01;100.00;99343.25;10079796;28;20680;-73
2022/01/09 12:07:57;;;;;;;10.90;8.32;;;;;;;2.98;100.00;99354.66;10093840;28;20043;-72
2022/01/09 12:12:53;;;;;;;14.77;9.15;;;;;;;3.07;100.00;99369.06;10082950;28;20089;-72
2022/01/09 12:17:50;;;;;;;11.30;8.75;;;;;;;3.19;100.00;99365.06;10081248;28;20562;-72
2022/01/09 12:22:53;;;;;;;12.52;8.60;;;;;;;3.24;100.00;99373.06;10083897;28;20574;-72
2022/01/09 12:27:54;;;;;;;12.98;9.32;;;;;;;3.26;100.00;99376.25;10095356;28;20075;-73
2022/01/09 12:32:50;;;;;;;12.45;9.25;;;;;;;3.35;100.00;99387.97;10113260;28;20094;-73
2022/01/09 12:37:52;;;;;;;10.68;8.13;;;;;;;3.43;100.00;99389.94;10112565;28;20795;-72
2022/01/09 12:42:57;;;;;;;11.65;7.97;;;;;;;3.51;100.00;99400.03;10115680;28;20047;-72
2022/01/09 12:47:56;;;;;;;12.38;9.38;;;;;;;3.51;100.00;99410.84;10105084;28;20602;-73
2022/01/09 12:53:11;;;;;;;11.32;7.90;;;;;;;3.54;100.00;99423.75;10113182;28;20097;-71
2022/01/09 12:58:09;;;;;;;13.95;5.25;;;;;;;3.64;100.00;99421.94;10104806;28;20059;-72
2022/01/09 13:03:05;;;;;;;11.80;5.47;;;;;;;3.71;100.00;99433.13;10084099;28;20454;-71
2022/01/09 13:08:02;;;;;;;7.90;5.32;;;;;;;3.73;100.00;99429.00;10094785;28;20047;-72
2022/01/09 13:13:11;;;;;;;11.02;5.60;;;;;;;3.76;100.00;99444.66;10123887;28;20098;-71
2022/01/09 13:18:08;;;;;;;11.32;6.90;;;;;;;3.75;100.00;99455.75;10095219;28;20054;-71
2022/01/09 13:23:09;;;;;;;13.40;7.43;;;;;;;3.68;100.00;99455.38;10105303;28;20503;-71
2022/01/09 13:28:06;;;;;;;12.25;7.25;;;;;;;3.81;100.00;99468.06;10107760;28;20043;-71
2022/01/09 13:33:03;;;;;;;16.52;8.40;;;;;;;3.87;100.00;99482.28;10100941;28;20129;-67
2022/01/09 13:38:00;;;;;;;13.32;8.68;;;;;;;3.93;100.00;99487.28;10100007;28;20073;-72
2022/01/09 13:42:57;;;;;;;13.00;7.82;;;;;;;4.00;100.00;99497.69;10112900;28;20095;-72
2022/01/09 13:47:57;;;;;;;12.13;7.75;;;;;;;3.91;100.00;99508.41;10101016;28;20077;-70
2022/01/09 13:52:54;;;;;;;15.95;8.23;;;;;;;3.88;100.00;99522.53;10121286;28;20120;-71
2022/01/09 13:58:07;;;;;;;13.52;8.00;;;;;;;3.93;100.00;99530.53;10109795;28;20051;-71
2022/01/09 14:03:07;;;;;;;16.63;8.55;;;;;;;3.98;100.00;99543.97;10139771;28;20073;-70
2022/01/09 14:08:07;;;;;;;15.57;10.18;;;;;;;4.01;100.00;99547.97;10101227;28;20134;-71
2022/01/09 14:13:23;;;;;;;13.32;8.07;;;;;;;4.07;100.00;99551.38;10079312;28;20039;-72
2022/01/09 14:18:30;;;;;;;16.55;8.85;;;;;;;4.09;100.00;99570.81;10075994;28;20440;-71
2022/01/09 14:23:32;;;;;;;19.38;10.52;;;;;;;4.13;100.00;99578.03;10080981;28;20068;-70
2022/01/09 14:28:28;;;;;;;16.52;10.85;;;;;;;4.19;100.00;99581.41;10099524;28;20046;-72
2022/01/09 14:33:27;;;;;;;18.50;10.82;;;;;;;4.26;100.00;99597.22;10109424;28;20088;-72
2022/01/09 14:38:28;;;;;;;18.35;10.30;;;;;;;4.25;100.00;99609.97;10104056;28;20085;-73
2022/01/09 14:43:27;;;;;;;22.73;12.23;;;;;;;4.22;100.00;99624.09;10091389;28;20475;-73
2022/01/09 14:48:26;;;;;;;19.80;12.02;;;;;;;4.24;100.00;99637.31;10095281;28;20475;-71
2022/01/09 14:53:23;;;;;;;24.63;13.07;;;;;;;4.27;100.00;99648.34;10091671;28;20065;-73
2022/01/09 14:58:20;;;;;;;18.52;10.65;;;;;;;4.27;100.00;99659.19;10084894;28;20081;-72
2022/01/09 15:03:20;;;;;;;15.95;8.98;;;;;;;4.30;100.00;99668.59;10086552;28;20586;-73
2022/01/09 15:08:17;;;;;;;10.65;5.30;;;;;;;4.29;100.00;99681.31;10094472;28;20051;-72
2022/01/09 15:13:15;;;;;;;14.00;3.60;;;;;;;4.27;100.00;99691.66;10117269;28;20101;-72
2022/01/09 15:18:12;;;;;;;7.25;1.67;;;;;;;4.26;100.00;99706.25;10088962;28;20483;-72
2022/01/09 15:23:10;;;;;;;14.73;3.63;;;;;;;4.29;100.00;99715.69;10085093;28;20109;-73
2022/01/09 15:28:07;;;;;;;9.57;1.55;;;;;;;4.28;100.00;99728.41;10083081;28;20047;-71
2022/01/09 15:33:05;;;;;;;20.83;3.55;;;;;;;4.26;100.00;99733.31;10108549;28;20093;-72
2022/01/09 15:38:02;;;;;;;9.57;1.75;;;;;;;4.29;100.00;99743.53;10083996;28;20137;-73
2022/01/09 15:43:01;;;;;;;8.57;1.50;;;;;;;4.27;100.00;99745.78;10094624;28;20075;-73
2022/01/09 15:47:58;;;;;;;7.82;1.88;;;;;;;4.30;100.00;99749.78;10083936;28;20050;-75
2022/01/09 15:52:54;;;;;;;12.07;2.20;;;;;;;4.30;100.00;99761.41;10083871;28;20061;-73
2022/01/09 15:57:51;;;;;;;15.23;2.08;;;;;;;4.34;100.00;99758.88;10088002;28;20141;-73
2022/01/09 16:02:47;;;;;;;10.02;2.03;;;;;;;4.35;100.00;99769.41;10082778;28;20094;-73
2022/01/09 16:07:44;;;;;;;12.98;1.60;;;;;;;4.34;100.00;99773.25;10084844;28;20043;-73
2022/01/09 16:12:47;;;;;;;8.85;1.55;;;;;;;4.38;100.00;99790.47;10083040;28;20578;-74
2022/01/09 16:17:49;;;;;;;13.38;2.00;;;;;;;4.40;100.00;99799.09;10088862;28;20126;-73
2022/01/09 16:22:47;;;;;;;14.65;2.15;;;;;;;4.49;100.00;99795.69;10085886;28;20204;-74
2022/01/09 16:27:44;;;;;;;16.60;3.05;;;;;;;4.56;100.00;99804.22;10094291;28;20074;-74
2022/01/09 16:32:40;;;;;;;15.32;3.85;;;;;;;4.57;100.00;99814.75;10095050;28;20738;-74
2022/01/09 16:37:37;;;;;;;17.58;4.25;;;;;;;4.67;100.00;99823.78;10095530;28;20459;-70
2022/01/09 16:42:35;;;;;;;18.88;3.80;;;;;;;4.67;100.00;99835.41;10083973;28;20073;-68
2022/01/09 16:47:32;;;;;;;20.45;4.43;;;;;;;4.70;100.00;99851.06;10078610;28;20067;-68
2022/01/09 16:52:28;;;;;;;19.92;3.88;;;;;;;4.71;100.00;99855.41;10100032;28;20057;-68
2022/01/09 16:57:25;;;;;;;24.20;4.38;;;;;;;4.72;100.00;99870.53;10090246;28;20506;-68
2022/01/09 17:02:22;;;;;;;15.23;4.15;;;;;;;4.74;100.00;99879.16;10092061;28;20046;-70
2022/01/09 17:07:18;;;;;;;20.00;4.50;;;;;;;4.78;100.00;99896.41;10100389;28;20054;-71
2022/01/09 17:12:16;;;;;;;18.95;3.60;;;;;;;4.80;100.00;99910.47;10101387;28;20043;-71
2022/01/09 17:17:13;;;;;;;26.40;4.43;;;;;;;4.84;100.00;99916.88;10098382;28;20074;-73
2022/01/09 17:22:12;;;;;;;27.67;3.88;;;;;;;4.88;100.00;99921.72;10087773;28;20054;-75
2022/01/09 17:27:08;;;;;;;22.52;4.82;;;;;;;4.82;100.00;99935.31;10088427;28;20109;-75
2022/01/09 17:32:05;;;;;;;25.27;3.92;;;;;;;4.77;100.00;99943.56;10086463;28;20088;-75
2022/01/09 17:37:04;;;;;;;25.17;5.55;;;;;;;4.82;100.00;99961.63;10094722;28;20075;-72
2022/01/09 17:42:01;;;;;;;32.03;5.15;;;;;;;4.84;100.00;99967.53;10088088;28;20058;-75
2022/01/09 17:46:58;;;;;;;23.50;3.53;;;;;;;4.82;100.00;99973.25;10089459;28;20051;-69
2022/01/09 17:51:54;;;;;;;27.52;4.70;;;;;;;4.77;100.00;99992.31;10081760;28;20055;-70
2022/01/09 17:56:51;;;;;;;19.92;3.30;;;;;;;4.74;100.00;99992.91;10090673;28;20522;-70
2022/01/09 18:01:48;;;;;;;21.27;3.58;;;;;;;4.71;100.00;100001.63;10087279;28;20050;-69
2022/01/09 18:06:44;;;;;;;24.92;3.80;;;;;;;4.74;100.00;100011.84;10089247;28;20126;-70
2022/01/09 18:11:42;;;;;;;18.05;3.85;;;;;;;4.68;100.00;100021.16;10084739;28;20053;-70
2022/01/09 18:16:39;;;;;;;17.58;2.97;;;;;;;4.66;100.00;100020.63;10086581;28;20047;-70
2022/01/09 18:21:35;;;;;;;18.50;3.22;;;;;;;4.60;100.00;100029.97;10090746;28;20054;-70
2022/01/09 18:26:32;;;;;;;14.63;3.35;;;;;;;4.64;100.00;100041.78;10093078;28;20039;-70
2022/01/09 18:31:28;;;;;;;18.27;3.30;;;;;;;4.67;100.00;100051.25;10095535;28;20078;-70
2022/01/09 18:36:25;;;;;;;23.75;4.60;;;;;;;4.67;100.00;100062.88;10100415;28;20477;-70
2022/01/09 18:41:22;;;;;;;24.30;4.35;;;;;;;4.68;100.00;100061.78;10131317;28;20445;-69
2022/01/09 18:46:19;;;;;;;21.35;3.72;;;;;;;4.67;100.00;100073.72;10096387;28;20047;-70
2022/01/09 18:51:16;;;;;;;19.15;3.33;;;;;;;4.63;100.00;100088.94;10085832;28;20074;-70
2022/01/09 18:56:16;;;;;;;25.13;3.40;;;;;;;4.63;100.00;100100.56;10086475;28;20461;-70
2022/01/09 19:01:13;;;;;;;20.15;4.65;;;;;;;4.63;100.00;100105.19;10078228;28;20066;-69
2022/01/09 19:06:10;;;;;;;19.20;3.88;;;;;;;4.58;100.00;100111.47;10082697;28;20081;-70
2022/01/09 19:11:08;;;;;;;19.00;3.05;;;;;;;4.62;100.00;100125.25;10086911;28;20102;-69
2022/01/09 19:16:05;;;;;;;18.70;3.65;;;;;;;4.67;100.00;100137.91;10096768;28;20077;-69
2022/01/09 19:21:02;;;;;;;24.45;3.30;;;;;;;4.65;100.00;100157.16;10094801;28;20146;-68
2022/01/09 19:25:58;;;;;;;16.38;2.97;;;;;;;4.67;100.00;100154.97;10119184;28;20050;-70
2022/01/09 19:30:58;;;;;;;21.98;3.67;;;;;;;4.60;100.00;100173.47;10084951;28;20078;-70
2022/01/09 19:35:54;;;;;;;24.08;4.80;;;;;;;4.67;100.00;100182.03;10085875;28;20077;-70
2022/01/09 19:40:55;;;;;;;24.20;4.53;;;;;;;4.64;100.00;100193.44;10112456;28;20090;-69
2022/01/09 19:45:52;;;;;;;17.23;3.67;;;;;;;4.63;100.00;100197.25;10099283;28;20101;-69
2022/01/09 19:50:49;;;;;;;18.05;4.53;;;;;;;4.57;100.00;100206.53;10100302;28;20073;-69
2022/01/09 19:55:46;;;;;;;26.30;3.95;;;;;;;4.60;100.00;100214.09;10108877;28;20122;-70
2022/01/09 20:00:42;;;;;;;29.98;4.22;;;;;;;4.63;100.00;100230.53;10104749;28;20055;-69
2022/01/09 20:05:39;;;;;;;19.42;4.20;;;;;;;4.63;100.00;100249.50;10101570;28;20053;-70
2022/01/09 20:10:36;;;;;;;21.15;4.35;;;;;;;4.62;100.00;100260.63;10087822;28;20395;-69
2022/01/09 20:15:33;;;;;;;23.48;3.75;;;;;;;4.63;100.00;100267.66;10099521;28;20050;-69
2022/01/09 20:20:29;;;;;;;20.55;3.30;;;;;;;4.69;100.00;100271.09;10107267;28;20055;-70
2022/01/09 20:25:27;;;;;;;21.55;2.95;;;;;;;4.67;100.00;100284.94;10111618;28;20047;-70
2022/01/09 20:30:23;;;;;;;16.55;3.15;;;;;;;4.64;100.00;100301.75;10101656;28;20050;-69
2022/01/09 20:35:20;;;;;;;20.35;3.15;;;;;;;4.67;100.00;100319.34;10098387;28;20054;-69
2022/01/09 20:40:16;;;;;;;22.33;3.75;;;;;;;4.65;100.00;100319.63;10085758;28;20062;-69
2022/01/09 20:45:13;;;;;;;18.80;3.70;;;;;;;4.66;100.00;100321.22;10101850;28;20055;-69
2022/01/09 20:50:10;;;;;;;22.38;3.30;;;;;;;4.61;100.00;100334.81;10084923;28;20086;-68
2022/01/09 20:55:07;;;;;;;41.72;5.65;;;;;;;4.63;100.00;100354.31;10070567;28;20079;-69
2022/01/09 21:00:06;;;;;;;21.02;3.63;;;;;;;4.61;100.00;100348.38;10086857;28;20161;-68
2022/01/09 21:05:03;;;;;;;17.73;3.10;;;;;;;4.58;100.00;100363.28;10091665;28;20055;-69
2022/01/09 21:10:00;;;;;;;21.35;4.60;;;;;;;4.59;100.00;100364.09;10094178;28;20093;-69
2022/01/09 21:14:57;;;;;;;17.42;3.13;;;;;;;4.59;100.00;100383.03;10074313;28;20059;-74
2022/01/09 21:19:53;;;;;;;19.48;3.70;;;;;;;4.59;100.00;100391.16;10078466;28;20109;-70
2022/01/09 21:24:50;;;;;;;18.05;3.15;;;;;;;4.66;100.00;100397.06;10115413;28;20051;-72
2022/01/09 21:29:47;;;;;;;18.73;2.88;;;;;;;4.52;100.00;100404.22;10079563;28;20051;-72
2022/01/09 21:34:43;;;;;;;11.93;2.42;;;;;;;4.50;100.00;100409.91;10093390;28;20478;-70
2022/01/09 21:39:55;;;;;;;17.00;3.60;;;;;;;4.46;100.00;100424.34;10097202;28;20464;-70
2022/01/09 21:44:55;;;;;;;20.65;2.97;;;;;;;4.50;100.00;100436.19;10087793;28;20086;-70
2022/01/09 21:49:52;;;;;;;18.02;3.83;;;;;;;4.51;100.00;100452.16;10090312;28;20062;-70
2022/01/09 21:54:49;;;;;;;19.70;2.78;;;;;;;4.45;100.00;100456.00;10088926;28;20093;-70
2022/01/09 21:59:45;;;;;;;16.50;3.20;;;;;;;4.53;100.00;100457.31;10089289;28;20071;-70
2022/01/09 22:04:42;;;;;;;22.15;4.35;;;;;;;4.53;100.00;100470.84;10093244;28;20518;-70
2022/01/09 22:09:39;;;;;;;25.38;3.85;;;;;;;4.51;100.00;100478.44;10095291;28;20117;-70
2022/01/09 22:14:38;;;;;;;18.35;2.67;;;;;;;4.51;100.00;100486.56;10086236;28;20058;-70
2022/01/09 22:19:37;;;;;;;23.83;3.88;;;;;;;4.45;100.00;100498.50;10085773;28;20083;-70
2022/01/09 22:24:38;;;;;;;20.38;4.35;;;;;;;4.46;100.00;100513.69;10090473;28;20500;-69
2022/01/09 22:29:36;;;;;;;20.48;3.53;;;;;;;4.46;100.00;100517.19;10083867;28;20536;-70
2022/01/09 22:34:33;;;;;;;19.33;4.50;;;;;;;4.38;100.00;100521.28;10098598;28;20118;-69
2022/01/09 22:39:29;;;;;;;15.25;2.92;;;;;;;4.44;100.00;100535.59;10089276;28;20138;-67
2022/01/09 22:44:28;;;;;;;19.60;3.80;;;;;;;4.41;100.00;100553.22;10089890;28;20094;-68
2022/01/09 22:49:24;;;;;;;15.07;3.20;;;;;;;4.45;100.00;100560.78;10086501;28;20058;-67
2022/01/09 22:54:21;;;;;;;17.42;3.17;;;;;;;4.49;100.00;100564.56;10083410;28;20039;-69
2022/01/09 22:59:17;;;;;;;15.43;2.67;;;;;;;4.49;100.00;100569.97;10087432;28;20100;-69